createdAt,value
2022-07-27T00:00:53.944Z,20.91
2022-07-27T00:03:20.891Z,20.85
2022-07-27T00:05:47.694Z,20.91
2022-07-27T00:08:14.597Z,20.78
2022-07-27T00:10:41.417Z,20.84
2022-07-27T00:13:08.295Z,20.86
2022-07-27T00:15:35.300Z,20.79
2022-07-27T00:18:02.189Z,20.82
2022-07-27T00:20:30.923Z,20.86
2022-07-27T00:22:59.120Z,20.85
2022-07-27T00:25:27.769Z,20.81
2022-07-27T00:27:56.839Z,20.77
2022-07-27T00:30:24.452Z,20.70
2022-07-27T00:32:52.007Z,20.69
2022-07-27T00:35:19.091Z,20.74
2022-07-27T00:37:45.953Z,20.71
2022-07-27T00:40:12.982Z,20.75
2022-07-27T00:42:39.994Z,20.73
2022-07-27T00:45:07.795Z,20.66
2022-07-27T00:47:34.978Z,20.64
2022-07-27T00:50:02.329Z,20.63
2022-07-27T00:52:30.809Z,20.54
2022-07-27T00:54:59.175Z,20.65
2022-07-27T00:57:27.886Z,20.64
2022-07-27T00:59:54.839Z,20.65
2022-07-27T01:02:22.960Z,20.64
2022-07-27T01:04:53.553Z,20.60
2022-07-27T01:07:24.684Z,20.62
2022-07-27T01:09:57.702Z,20.56
2022-07-27T01:12:32.440Z,20.60
2022-07-27T01:15:00.384Z,20.55
2022-07-27T01:17:30.732Z,20.50
2022-07-27T01:19:59.268Z,20.45
2022-07-27T01:22:27.091Z,20.45
2022-07-27T01:24:53.960Z,20.33
2022-07-27T01:27:21.063Z,20.35
2022-07-27T01:29:48.650Z,20.33
2022-07-27T01:32:15.739Z,20.33
2022-07-27T01:34:42.721Z,20.29
2022-07-27T01:37:09.724Z,20.31
2022-07-27T01:39:36.697Z,20.29
2022-07-27T01:42:04.497Z,20.29
2022-07-27T01:44:31.316Z,20.25
2022-07-27T01:46:58.139Z,20.26
2022-07-27T01:49:25.059Z,20.21
2022-07-27T01:51:52.119Z,20.19
2022-07-27T01:54:19.028Z,20.23
2022-07-27T01:56:45.973Z,20.20
2022-07-27T01:59:16.580Z,20.11
2022-07-27T02:01:45.198Z,20.17
2022-07-27T02:04:12.329Z,20.13
2022-07-27T02:06:39.463Z,20.06
2022-07-27T02:09:06.553Z,19.95
2022-07-27T02:11:51.861Z,19.94
2022-07-27T02:14:19.195Z,19.95
2022-07-27T02:16:48.298Z,19.81
2022-07-27T02:19:17.232Z,19.76
2022-07-27T02:21:45.247Z,19.75
2022-07-27T02:24:12.299Z,19.67
2022-07-27T02:26:39.236Z,19.52
2022-07-27T02:29:07.168Z,19.49
2022-07-27T02:31:33.977Z,19.51
2022-07-27T02:34:00.850Z,19.47
2022-07-27T02:36:30.362Z,19.39
2022-07-27T02:38:57.988Z,19.54
2022-07-27T02:41:25.062Z,19.47
2022-07-27T02:43:51.924Z,19.53
2022-07-27T02:46:18.838Z,19.38
2022-07-27T02:48:46.085Z,19.29
2022-07-27T02:51:14.903Z,19.15
2022-07-27T02:53:42.050Z,19.10
2022-07-27T02:56:09.011Z,19.16
2022-07-27T02:58:36.045Z,19.05
2022-07-27T03:01:03.859Z,19.13
2022-07-27T03:03:36.206Z,19.13
2022-07-27T03:06:08.554Z,19.19
2022-07-27T03:08:36.246Z,19.13
2022-07-27T03:11:03.365Z,19.20
2022-07-27T03:13:30.623Z,19.29
2022-07-27T03:15:58.187Z,19.22
2022-07-27T03:18:25.238Z,19.25
2022-07-27T03:20:52.243Z,19.14
2022-07-27T03:23:19.730Z,19.18
2022-07-27T03:25:46.669Z,19.11
2022-07-27T03:28:13.538Z,19.04
2022-07-27T03:30:40.439Z,19.13
2022-07-27T03:33:07.611Z,19.03
2022-07-27T03:35:34.453Z,19.01
2022-07-27T03:38:01.417Z,18.96
2022-07-27T03:40:32.790Z,18.87
2022-07-27T03:43:00.201Z,18.81
2022-07-27T03:45:27.753Z,18.82
2022-07-27T03:47:54.697Z,18.84
2022-07-27T03:50:21.573Z,18.91
2022-07-27T03:52:48.435Z,18.84
2022-07-27T03:55:15.278Z,18.80
2022-07-27T03:57:42.132Z,18.84
2022-07-27T04:00:12.442Z,18.84
2022-07-27T04:02:43.053Z,18.70
2022-07-27T04:05:10.917Z,18.89
2022-07-27T04:07:38.523Z,18.87
2022-07-27T04:10:06.858Z,18.74
2022-07-27T04:12:39.498Z,18.75
2022-07-27T04:15:07.518Z,18.87
2022-07-27T04:17:55.266Z,18.85
2022-07-27T04:20:21.252Z,18.94
2022-07-27T04:22:48.784Z,19.00
2022-07-27T04:25:15.657Z,19.05
2022-07-27T04:27:42.515Z,19.06
2022-07-27T04:30:10.008Z,19.07
2022-07-27T04:32:37.426Z,18.97
2022-07-27T04:35:05.033Z,19.05
2022-07-27T04:37:33.258Z,19.05
2022-07-27T04:40:00.914Z,19.06
2022-07-27T04:42:28.616Z,19.08
2022-07-27T04:44:55.579Z,19.12
2022-07-27T04:47:22.455Z,19.13
2022-07-27T04:49:49.271Z,19.08
2022-07-27T04:52:16.648Z,18.93
2022-07-27T04:54:44.295Z,19.16
2022-07-27T04:57:11.189Z,19.10
2022-07-27T04:59:38.295Z,19.26
2022-07-27T05:02:05.187Z,19.26
2022-07-27T05:04:32.077Z,19.23
2022-07-27T05:06:58.940Z,19.29
2022-07-27T05:09:25.736Z,19.29
2022-07-27T05:11:52.931Z,19.23
2022-07-27T05:14:21.504Z,19.34
2022-07-27T05:16:49.460Z,19.25
2022-07-27T05:19:16.548Z,19.45
2022-07-27T05:21:43.634Z,19.47
2022-07-27T05:24:10.457Z,19.45
2022-07-27T05:26:37.947Z,19.58
2022-07-27T05:29:04.920Z,19.60
2022-07-27T05:31:31.840Z,19.62
2022-07-27T05:33:58.869Z,19.58
2022-07-27T05:36:26.639Z,19.67
2022-07-27T05:38:53.523Z,19.64
2022-07-27T05:41:25.634Z,19.70
2022-07-27T05:43:54.458Z,19.68
2022-07-27T05:46:22.157Z,19.70
2022-07-27T05:48:49.594Z,19.74
2022-07-27T05:51:16.547Z,19.62
2022-07-27T05:53:43.400Z,19.69
2022-07-27T05:56:10.330Z,19.82
2022-07-27T05:58:37.377Z,19.83
2022-07-27T06:01:04.676Z,19.75
2022-07-27T06:03:31.658Z,19.88
2022-07-27T06:06:17.459Z,19.92
2022-07-27T06:08:45.644Z,20.00
2022-07-27T06:11:12.740Z,20.06
2022-07-27T06:13:41.981Z,19.88
2022-07-27T06:16:10.140Z,20.14
2022-07-27T06:18:37.322Z,19.97
2022-07-27T06:21:04.644Z,20.08
2022-07-27T06:23:31.723Z,20.18
2022-07-27T06:25:58.593Z,20.16
2022-07-27T06:28:25.443Z,20.22
2022-07-27T06:30:53.584Z,20.27
2022-07-27T06:33:29.047Z,20.08
2022-07-27T06:35:58.187Z,20.27
2022-07-27T06:38:25.879Z,20.32
2022-07-27T06:40:53.771Z,20.36
2022-07-27T06:43:26.931Z,20.37
2022-07-27T06:45:54.778Z,20.43
2022-07-27T06:48:22.286Z,20.45
2022-07-27T06:50:50.311Z,20.46
2022-07-27T06:53:21.074Z,20.48
2022-07-27T06:55:49.259Z,20.56
2022-07-27T06:58:16.926Z,20.57
2022-07-27T07:00:43.832Z,20.58
2022-07-27T07:03:11.265Z,20.54
2022-07-27T07:05:46.408Z,20.46
2022-07-27T07:08:14.517Z,20.53
2022-07-27T07:10:44.006Z,20.65
2022-07-27T07:13:11.340Z,20.67
2022-07-27T07:15:40.726Z,20.75
2022-07-27T07:18:08.269Z,20.82
2022-07-27T07:20:36.512Z,20.76
2022-07-27T07:23:04.764Z,20.77
2022-07-27T07:25:33.516Z,20.74
2022-07-27T07:28:00.677Z,20.75
2022-07-27T07:30:28.476Z,20.78
2022-07-27T07:32:56.242Z,20.94
2022-07-27T07:35:23.689Z,20.98
2022-07-27T07:37:50.911Z,21.05
2022-07-27T07:43:06.463Z,21.14
2022-07-27T07:45:37.976Z,21.07
2022-07-27T07:48:12.724Z,21.03
2022-07-27T07:50:39.541Z,21.08
2022-07-27T07:53:06.388Z,21.20
2022-07-27T07:55:33.461Z,21.18
2022-07-27T07:58:01.800Z,21.26
2022-07-27T08:00:28.783Z,21.28
2022-07-27T08:02:59.784Z,21.37
2022-07-27T08:05:27.763Z,21.42
2022-07-27T08:07:55.121Z,21.40
2022-07-27T08:10:22.888Z,21.63
2022-07-27T08:12:53.683Z,21.67
2022-07-27T08:15:21.444Z,21.70
2022-07-27T08:18:00.040Z,21.80
2022-07-27T08:20:28.296Z,21.75
2022-07-27T08:22:55.112Z,22.01
2022-07-27T08:25:21.954Z,21.96
2022-07-27T08:27:48.861Z,22.05
2022-07-27T08:30:15.675Z,22.04
2022-07-27T08:32:56.033Z,22.12
2022-07-27T08:35:22.962Z,22.01
2022-07-27T08:37:50.388Z,22.07
2022-07-27T08:43:05.558Z,22.23
2022-07-27T08:45:33.583Z,22.26
2022-07-27T08:48:01.587Z,22.24
2022-07-27T08:50:30.399Z,22.15
2022-07-27T08:53:07.417Z,22.27
2022-07-27T08:55:43.688Z,22.21
2022-07-27T08:58:12.346Z,22.32
2022-07-27T09:00:42.625Z,22.31
2022-07-27T09:03:19.559Z,22.38
2022-07-27T09:05:55.431Z,22.43
2022-07-27T09:08:24.978Z,22.35
2022-07-27T09:10:55.213Z,22.27
2022-07-27T09:13:22.130Z,22.33
2022-07-27T09:18:46.510Z,22.49
2022-07-27T09:21:21.967Z,22.63
2022-07-27T09:24:44.265Z,22.68
2022-07-27T09:27:06.059Z,22.84
2022-07-27T09:29:36.657Z,22.71
2022-07-27T09:32:15.640Z,22.97
2022-07-27T09:34:43.136Z,22.84
2022-07-27T09:37:10.971Z,22.73
2022-07-27T09:39:39.095Z,22.85
2022-07-27T09:42:06.136Z,22.80
2022-07-27T09:44:44.897Z,22.86
2022-07-27T09:47:30.313Z,22.86
2022-07-27T09:50:18.269Z,23.04
2022-07-27T09:52:46.517Z,23.08
2022-07-27T09:55:14.223Z,23.15
2022-07-27T09:57:56.517Z,23.20
2022-07-27T10:00:24.946Z,23.24
2022-07-27T10:02:53.890Z,23.22
2022-07-27T10:05:24.191Z,23.22
2022-07-27T10:07:53.986Z,23.32
2022-07-27T10:10:23.097Z,23.30
2022-07-27T10:12:54.536Z,23.21
2022-07-27T10:15:24.210Z,23.51
2022-07-27T10:18:07.411Z,23.51
2022-07-27T10:20:39.837Z,23.57
2022-07-27T10:23:07.399Z,23.53
2022-07-27T10:25:37.739Z,23.56
2022-07-27T10:28:17.494Z,23.49
2022-07-27T10:30:48.169Z,23.61
2022-07-27T10:33:47.915Z,23.55
2022-07-27T10:36:46.771Z,23.48
2022-07-27T10:39:30.201Z,23.55
2022-07-27T10:42:28.090Z,23.58
2022-07-27T10:45:02.432Z,23.61
2022-07-27T10:47:37.598Z,23.69
2022-07-27T10:50:16.641Z,23.72
2022-07-27T10:53:05.392Z,23.75
2022-07-27T10:55:38.006Z,23.87
2022-07-27T10:58:11.023Z,24.08
2022-07-27T11:00:57.140Z,24.11
2022-07-27T11:03:42.703Z,23.98
2022-07-27T11:06:55.726Z,24.16
2022-07-27T11:11:55.807Z,24.40
2022-07-27T11:14:30.471Z,24.57
2022-07-27T11:17:24.268Z,24.67
2022-07-27T11:20:00.345Z,24.92
2022-07-27T11:25:27.137Z,25.37
2022-07-27T11:27:54.111Z,25.80
2022-07-27T11:30:29.146Z,26.35
2022-07-27T11:32:56.600Z,27.39
2022-07-27T11:35:24.085Z,28.62
2022-07-27T11:38:05.153Z,29.39
2022-07-27T11:43:44.003Z,32.26
2022-07-27T11:46:26.493Z,33.86
2022-07-27T11:49:08.604Z,35.71
2022-07-27T11:51:44.316Z,34.27
2022-07-27T11:54:23.345Z,36.12
2022-07-27T11:56:56.779Z,35.99
2022-07-27T11:59:34.170Z,36.26
2022-07-27T12:02:10.492Z,35.01
2022-07-27T12:04:40.999Z,37.05
2022-07-27T12:07:17.031Z,37.90
2022-07-27T12:09:56.409Z,34.28
2022-07-27T12:12:25.976Z,33.96
2022-07-27T12:15:11.889Z,34.26
2022-07-27T12:17:57.231Z,32.72
2022-07-27T12:20:33.703Z,33.84
2022-07-27T12:23:06.692Z,31.88
2022-07-27T12:25:34.647Z,31.12
2022-07-27T12:28:04.725Z,30.14
2022-07-27T12:30:34.903Z,29.33
2022-07-27T12:33:14.050Z,29.30
2022-07-27T12:35:47.087Z,30.26
2022-07-27T12:38:14.149Z,30.31
2022-07-27T12:40:50.969Z,29.40
2022-07-27T12:43:23.964Z,29.63
2022-07-27T12:45:53.443Z,29.52
2022-07-27T12:48:27.915Z,29.54
2022-07-27T12:51:04.521Z,30.18
2022-07-27T12:53:33.111Z,29.74
2022-07-27T12:56:05.432Z,29.72
2022-07-27T12:58:32.862Z,28.97
2022-07-27T13:00:59.915Z,29.10
2022-07-27T13:03:26.870Z,29.39
2022-07-27T13:05:53.827Z,29.45
2022-07-27T13:08:21.939Z,28.95
2022-07-27T13:10:52.081Z,28.48
2022-07-27T13:13:24.195Z,28.39
2022-07-27T13:15:51.145Z,28.14
2022-07-27T13:18:23.314Z,27.88
2022-07-27T13:20:51.488Z,27.79
2022-07-27T13:23:18.474Z,28.29
2022-07-27T13:25:45.430Z,27.91
2022-07-27T13:28:12.922Z,27.88
2022-07-27T13:30:39.991Z,27.77
2022-07-27T13:33:07.259Z,27.59
2022-07-27T13:35:34.301Z,27.29
2022-07-27T13:38:01.114Z,27.17
2022-07-27T13:40:27.944Z,27.22
2022-07-27T13:42:54.760Z,27.10
2022-07-27T13:45:21.820Z,27.17
2022-07-27T13:47:48.758Z,27.16
2022-07-27T13:50:19.312Z,27.08
2022-07-27T13:52:48.418Z,27.13
2022-07-27T13:55:16.976Z,27.12
2022-07-27T13:57:45.015Z,27.01
2022-07-27T14:00:12.960Z,27.05
2022-07-27T14:02:40.130Z,27.17
2022-07-27T14:05:12.311Z,27.11
2022-07-27T14:07:40.873Z,27.08
2022-07-27T14:10:28.743Z,27.32
2022-07-27T14:13:08.190Z,27.32
2022-07-27T14:15:52.710Z,27.28
2022-07-27T14:18:23.944Z,27.11
2022-07-27T14:20:50.816Z,27.22
2022-07-27T14:23:17.636Z,27.22
2022-07-27T14:25:44.885Z,27.26
2022-07-27T14:28:11.718Z,27.10
2022-07-27T14:30:38.615Z,27.00
2022-07-27T14:33:05.471Z,26.80
2022-07-27T14:35:35.724Z,26.80
2022-07-27T14:38:05.274Z,26.74
2022-07-27T14:40:32.110Z,26.75
2022-07-27T14:42:59.956Z,26.78
2022-07-27T14:45:44.951Z,26.79
2022-07-27T14:48:21.492Z,26.74
2022-07-27T14:50:55.296Z,26.66
2022-07-27T14:53:22.282Z,26.74
2022-07-27T14:55:49.172Z,26.75
2022-07-27T14:58:16.189Z,26.80
2022-07-27T15:00:43.144Z,26.88
2022-07-27T15:03:14.668Z,26.87
2022-07-27T15:05:50.652Z,26.86
2022-07-27T15:08:20.693Z,26.77
2022-07-27T15:10:48.292Z,26.82
2022-07-27T15:13:15.426Z,26.76
2022-07-27T15:15:42.381Z,26.75
2022-07-27T15:18:09.307Z,26.77
2022-07-27T15:20:36.217Z,26.67
2022-07-27T15:23:04.001Z,26.68
2022-07-27T15:25:30.863Z,26.63
2022-07-27T15:27:57.971Z,26.80
2022-07-27T15:30:24.869Z,26.80
2022-07-27T15:32:51.758Z,26.80
2022-07-27T15:35:19.043Z,26.77
2022-07-27T15:37:54.829Z,26.70
2022-07-27T15:40:37.815Z,26.73
2022-07-27T15:43:10.788Z,26.68
2022-07-27T15:45:40.191Z,26.68
2022-07-27T15:48:09.406Z,26.61
2022-07-27T15:50:39.026Z,26.61
2022-07-27T15:53:06.952Z,26.52
2022-07-27T15:55:35.251Z,26.52
2022-07-27T15:58:02.058Z,26.51
2022-07-27T16:00:29.320Z,26.43
2022-07-27T16:02:56.803Z,26.37
2022-07-27T16:05:24.011Z,26.43
2022-07-27T16:07:51.109Z,26.54
2022-07-27T16:10:17.943Z,26.52
2022-07-27T16:12:44.948Z,26.46
2022-07-27T16:15:11.826Z,26.56
2022-07-27T16:17:38.671Z,26.57
2022-07-27T16:20:06.965Z,26.49
2022-07-27T16:22:35.327Z,26.42
2022-07-27T16:25:02.167Z,26.40
2022-07-27T16:27:29.062Z,26.40
2022-07-27T16:29:55.905Z,26.23
2022-07-27T16:32:22.802Z,26.30
2022-07-27T16:34:49.633Z,26.24
2022-07-27T16:37:17.238Z,26.28
2022-07-27T16:39:44.583Z,26.34
2022-07-27T16:42:11.417Z,26.38
2022-07-27T16:44:40.064Z,26.35
2022-07-27T16:47:07.364Z,26.34
2022-07-27T16:49:36.585Z,26.47
2022-07-27T16:52:05.886Z,26.47
2022-07-27T16:54:38.877Z,26.50
2022-07-27T16:57:07.928Z,26.54
2022-07-27T16:59:34.797Z,26.52
2022-07-27T17:02:01.707Z,26.56
2022-07-27T17:04:28.552Z,26.59
2022-07-27T17:06:55.399Z,26.57
2022-07-27T17:09:22.232Z,26.62
2022-07-27T17:11:50.274Z,26.48
2022-07-27T17:14:17.304Z,26.57
2022-07-27T17:16:51.883Z,26.49
2022-07-27T17:19:19.349Z,26.64
2022-07-27T17:21:46.431Z,26.60
2022-07-27T17:24:13.308Z,26.56
2022-07-27T17:26:40.208Z,26.53
2022-07-27T17:29:07.054Z,26.60
2022-07-27T17:31:33.953Z,26.52
2022-07-27T17:34:01.292Z,26.53
2022-07-27T17:36:28.232Z,26.45
2022-07-27T17:38:55.323Z,26.39
2022-07-27T17:41:24.849Z,26.32
2022-07-27T17:43:54.000Z,26.30
2022-07-27T17:46:21.920Z,26.36
2022-07-27T17:48:48.940Z,26.31
2022-07-27T17:51:16.039Z,26.19
2022-07-27T17:53:43.586Z,26.06
2022-07-27T17:56:11.110Z,26.11
2022-07-27T17:58:38.234Z,25.90
2022-07-27T18:01:08.788Z,25.87
2022-07-27T18:03:35.903Z,25.84
2022-07-27T18:06:03.156Z,25.78
2022-07-27T18:08:29.999Z,25.77
2022-07-27T18:10:56.944Z,25.71
2022-07-27T18:13:23.875Z,25.61
2022-07-27T18:16:08.032Z,25.48
2022-07-27T18:18:36.210Z,25.59
2022-07-27T18:21:03.678Z,25.55
2022-07-27T18:23:30.784Z,25.48
2022-07-27T18:25:57.831Z,25.40
2022-07-27T18:28:25.013Z,25.48
2022-07-27T18:30:53.781Z,25.47
2022-07-27T18:33:21.280Z,25.46
2022-07-27T18:35:48.714Z,25.41
2022-07-27T18:38:16.801Z,25.34
2022-07-27T18:40:47.260Z,25.36
2022-07-27T18:43:15.990Z,25.32
2022-07-27T18:45:43.423Z,25.29
2022-07-27T18:48:10.738Z,25.17
2022-07-27T18:50:39.839Z,25.19
2022-07-27T18:53:07.872Z,25.16
2022-07-27T18:55:34.923Z,25.15
2022-07-27T18:58:01.723Z,25.08
2022-07-27T19:00:29.012Z,25.10
2022-07-27T19:02:58.178Z,24.89
2022-07-27T19:05:40.757Z,25.07
2022-07-27T19:08:13.367Z,25.04
2022-07-27T19:10:42.467Z,24.86
2022-07-27T19:13:10.566Z,24.95
2022-07-27T19:15:38.258Z,24.90
2022-07-27T19:18:06.583Z,24.79
2022-07-27T19:20:33.644Z,24.84
2022-07-27T19:23:00.804Z,24.70
2022-07-27T19:25:30.214Z,24.78
2022-07-27T19:27:57.571Z,24.67
2022-07-27T19:30:24.493Z,24.72
2022-07-27T19:32:51.773Z,24.67
2022-07-27T19:35:18.702Z,24.57
2022-07-27T19:37:45.558Z,24.40
2022-07-27T19:42:59.632Z,24.44
2022-07-27T19:45:26.538Z,24.42
2022-07-27T19:47:53.407Z,24.43
2022-07-27T19:50:20.294Z,24.42
2022-07-27T19:52:47.244Z,24.29
2022-07-27T19:55:15.478Z,24.31
2022-07-27T19:57:42.295Z,24.28
2022-07-27T20:00:11.088Z,24.17
2022-07-27T20:02:38.106Z,24.18
2022-07-27T20:05:05.473Z,24.16
2022-07-27T20:07:32.374Z,24.25
2022-07-27T20:09:59.382Z,24.21
2022-07-27T20:12:26.286Z,24.25
2022-07-27T20:14:53.207Z,24.17
2022-07-27T20:17:20.138Z,24.15
2022-07-27T20:19:46.985Z,24.23
2022-07-27T20:22:13.883Z,24.17
2022-07-27T20:24:40.759Z,24.08
2022-07-27T20:27:07.666Z,24.04
2022-07-27T20:29:34.486Z,24.12
2022-07-27T20:32:01.561Z,24.14
2022-07-27T20:34:28.603Z,24.05
2022-07-27T20:36:56.252Z,24.05
2022-07-27T20:39:25.362Z,24.09
2022-07-27T20:41:52.610Z,24.00
2022-07-27T20:44:20.823Z,24.10
2022-07-27T20:46:48.121Z,23.94
2022-07-27T20:49:16.895Z,24.07
2022-07-27T20:51:44.296Z,24.02
2022-07-27T20:54:11.163Z,24.03
2022-07-27T20:56:39.775Z,23.97
2022-07-27T20:59:07.655Z,23.86
2022-07-27T21:01:36.120Z,23.86
2022-07-27T21:04:03.110Z,23.91
2022-07-27T21:06:30.000Z,23.95
2022-07-27T21:08:56.816Z,23.92
2022-07-27T21:11:23.637Z,23.91
2022-07-27T21:13:50.452Z,23.77
2022-07-27T21:16:17.314Z,23.81
2022-07-27T21:18:44.175Z,23.83
2022-07-27T21:21:11.073Z,23.72
2022-07-27T21:23:56.761Z,23.68
2022-07-27T21:26:23.701Z,23.59
2022-07-27T21:28:50.533Z,23.66
2022-07-27T21:31:17.491Z,23.59
2022-07-27T21:33:44.402Z,23.56
2022-07-27T21:36:11.291Z,23.48
2022-07-27T21:38:38.114Z,23.55
2022-07-27T21:41:05.747Z,23.44
2022-07-27T21:43:33.439Z,23.40
2022-07-27T21:46:00.465Z,23.35
2022-07-27T21:48:27.333Z,23.38
2022-07-27T21:50:54.199Z,23.33
2022-07-27T21:53:21.069Z,23.29
2022-07-27T21:55:47.909Z,23.20
2022-07-27T21:58:15.407Z,23.15
2022-07-27T22:00:42.683Z,23.15
2022-07-27T22:03:10.047Z,23.14
2022-07-27T22:05:37.047Z,22.95
2022-07-27T22:08:04.119Z,22.86
2022-07-27T22:10:31.682Z,22.75
2022-07-27T22:12:59.141Z,22.66
2022-07-27T22:15:26.867Z,22.59
2022-07-27T22:17:53.982Z,22.63
2022-07-27T22:20:21.719Z,22.56
2022-07-27T22:22:50.268Z,22.62
2022-07-27T22:25:18.872Z,22.57
2022-07-27T22:27:45.697Z,22.59
2022-07-27T22:30:12.714Z,22.46
2022-07-27T22:32:39.544Z,22.55
2022-07-27T22:35:07.210Z,22.53
2022-07-27T22:37:34.030Z,22.43
2022-07-27T22:40:00.906Z,22.56
2022-07-27T22:42:28.180Z,22.43
2022-07-27T22:44:55.041Z,22.51
2022-07-27T22:47:21.923Z,22.43
2022-07-27T22:49:48.845Z,22.38
2022-07-27T22:52:15.654Z,22.45
2022-07-27T22:54:42.498Z,22.48
2022-07-27T22:57:09.340Z,22.46
2022-07-27T22:59:37.445Z,22.43
2022-07-27T23:02:05.681Z,22.43
2022-07-27T23:04:32.790Z,22.43
2022-07-27T23:06:59.789Z,22.43
2022-07-27T23:09:26.602Z,22.33
2022-07-27T23:11:53.638Z,22.32
2022-07-27T23:14:20.672Z,22.32
2022-07-27T23:16:47.541Z,22.27
2022-07-27T23:19:14.459Z,22.30
2022-07-27T23:21:42.334Z,22.30
2022-07-27T23:24:11.088Z,22.28
2022-07-27T23:26:38.615Z,22.29
2022-07-27T23:29:05.428Z,22.32
2022-07-27T23:31:32.306Z,22.30
2022-07-27T23:33:59.273Z,22.29
2022-07-27T23:36:26.622Z,22.24
2022-07-27T23:38:53.615Z,22.15
2022-07-27T23:41:20.810Z,22.08
2022-07-27T23:43:47.637Z,22.21
2022-07-27T23:46:14.794Z,22.12
2022-07-27T23:48:41.892Z,22.13
2022-07-27T23:51:09.177Z,22.02
2022-07-27T23:53:36.011Z,22.10
2022-07-27T23:56:02.879Z,21.95
2022-07-27T23:58:29.703Z,21.99
